sensor_id;sensor_type;location;lat;lon;timestamp;pressure;altitude;pressure_sealevel;temperature;humidity
70546;BME280;58098;51.680;5.134;2023-05-08T00:00:20;102088.84;;;14.87;100.00
70546;BME280;58098;51.680;5.134;2023-05-08T00:02:46;102079.66;;;14.82;100.00
70546;BME280;58098;51.680;5.134;2023-05-08T00:05:11;102069.72;;;14.74;100.00
70546;BME280;58098;51.680;5.134;2023-05-08T00:07:37;102069.94;;;14.71;100.00
70546;BME280;58098;51.680;5.134;2023-05-08T00:10:06;102081.19;;;14.73;100.00
70546;BME280;58098;51.680;5.134;2023-05-08T00:12:32;102065.50;;;14.61;100.00
70546;BME280;58098;51.680;5.134;2023-05-08T00:14:57;102072.56;;;14.60;100.00
70546;BME280;58098;51.680;5.134;2023-05-08T00:17:23;102070.28;;;14.55;100.00
70546;BME280;58098;51.680;5.134;2023-05-08T00:19:48;102071.47;;;14.51;100.00
70546;BME280;58098;51.680;5.134;2023-05-08T00:22:13;102068.84;;;14.51;100.00
70546;BME280;58098;51.680;5.134;2023-05-08T00:24:39;102059.88;;;14.43;100.00
70546;BME280;58098;51.680;5.134;2023-05-08T00:27:04;102070.97;;;14.46;100.00
70546;BME280;58098;51.680;5.134;2023-05-08T00:29:30;102064.50;;;14.39;100.00
70546;BME280;58098;51.680;5.134;2023-05-08T00:31:55;102064.63;;;14.38;100.00
70546;BME280;58098;51.680;5.134;2023-05-08T00:34:21;102063.66;;;14.39;100.00
70546;BME280;58098;51.680;5.134;2023-05-08T00:36:46;102069.31;;;14.45;100.00
70546;BME280;58098;51.680;5.134;2023-05-08T00:39:11;102072.03;;;14.44;100.00
70546;BME280;58098;51.680;5.134;2023-05-08T00:41:37;102068.56;;;14.43;100.00
70546;BME280;58098;51.680;5.134;2023-05-08T00:44:02;102058.41;;;14.39;100.00
70546;BME280;58098;51.680;5.134;2023-05-08T00:46:28;102062.72;;;14.40;100.00
70546;BME280;58098;51.680;5.134;2023-05-08T00:48:53;102059.88;;;14.43;100.00
70546;BME280;58098;51.680;5.134;2023-05-08T00:51:19;102051.72;;;14.35;100.00
70546;BME280;58098;51.680;5.134;2023-05-08T00:53:45;102062.81;;;14.38;100.00
70546;BME280;58098;51.680;5.134;2023-05-08T00:56:12;102071.78;;;14.36;100.00
70546;BME280;58098;51.680;5.134;2023-05-08T00:58:39;102075.59;;;14.32;100.00
70546;BME280;58098;51.680;5.134;2023-05-08T01:01:05;102059.78;;;14.21;100.00
70546;BME280;58098;51.680;5.134;2023-05-08T01:03:32;102072.78;;;14.22;100.00
70546;BME280;58098;51.680;5.134;2023-05-08T01:06:00;102053.31;;;14.14;100.00
70546;BME280;58098;51.680;5.134;2023-05-08T01:08:26;102067.25;;;14.14;100.00
70546;BME280;58098;51.680;5.134;2023-05-08T01:11:01;102063.41;;;14.07;100.00
70546;BME280;58098;51.680;5.134;2023-05-08T01:13:55;102056.00;;;14.01;100.00
70546;BME280;58098;51.680;5.134;2023-05-08T01:22:04;102051.31;;;13.70;100.00
70546;BME280;58098;51.680;5.134;2023-05-08T01:24:47;102062.63;;;13.70;100.00
70546;BME280;58098;51.680;5.134;2023-05-08T01:27:46;102070.34;;;13.61;100.00
70546;BME280;58098;51.680;5.134;2023-05-08T01:33:16;102072.06;;;13.49;100.00
70546;BME280;58098;51.680;5.134;2023-05-08T01:35:48;102061.19;;;13.43;100.00
70546;BME280;58098;51.680;5.134;2023-05-08T01:38:21;102055.75;;;13.33;100.00
70546;BME280;58098;51.680;5.134;2023-05-08T01:40:57;102072.72;;;13.40;100.00
70546;BME280;58098;51.680;5.134;2023-05-08T01:43:35;102069.59;;;13.35;100.00
70546;BME280;58098;51.680;5.134;2023-05-08T01:46:09;102059.25;;;13.21;100.00
70546;BME280;58098;51.680;5.134;2023-05-08T01:51:21;102080.09;;;13.22;100.00
70546;BME280;58098;51.680;5.134;2023-05-08T01:53:53;102069.41;;;13.13;100.00
70546;BME280;58098;51.680;5.134;2023-05-08T01:56:21;102082.50;;;13.13;100.00
70546;BME280;58098;51.680;5.134;2023-05-08T01:58:50;102088.69;;;13.12;100.00
70546;BME280;58098;51.680;5.134;2023-05-08T02:01:17;102088.16;;;13.07;100.00
70546;BME280;58098;51.680;5.134;2023-05-08T02:03:44;102085.75;;;13.04;100.00
70546;BME280;58098;51.680;5.134;2023-05-08T02:06:12;102066.78;;;12.88;100.00
70546;BME280;58098;51.680;5.134;2023-05-08T02:08:39;102093.28;;;12.96;100.00
70546;BME280;58098;51.680;5.134;2023-05-08T02:11:05;102072.53;;;12.80;100.00
70546;BME280;58098;51.680;5.134;2023-05-08T02:13:32;102061.63;;;12.61;100.00
70546;BME280;58098;51.680;5.134;2023-05-08T02:16:00;102084.06;;;12.78;100.00
70546;BME280;58098;51.680;5.134;2023-05-08T02:18:27;102093.81;;;12.76;100.00
70546;BME280;58098;51.680;5.134;2023-05-08T02:20:54;102089.09;;;12.68;100.00
70546;BME280;58098;51.680;5.134;2023-05-08T02:23:22;102076.63;;;12.59;100.00
70546;BME280;58098;51.680;5.134;2023-05-08T02:25:50;102090.38;;;12.63;100.00
70546;BME280;58098;51.680;5.134;2023-05-08T02:28:17;102088.78;;;12.60;100.00
70546;BME280;58098;51.680;5.134;2023-05-08T02:30:43;102091.41;;;12.60;100.00
70546;BME280;58098;51.680;5.134;2023-05-08T02:33:11;102088.25;;;12.55;100.00
70546;BME280;58098;51.680;5.134;2023-05-08T02:35:40;102095.78;;;12.59;100.00
70546;BME280;58098;51.680;5.134;2023-05-08T02:38:08;102096.84;;;12.57;100.00
70546;BME280;58098;51.680;5.134;2023-05-08T02:40:36;102083.22;;;12.52;100.00
70546;BME280;58098;51.680;5.134;2023-05-08T02:43:03;102089.50;;;12.49;100.00
70546;BME280;58098;51.680;5.134;2023-05-08T02:45:33;102096.19;;;12.53;100.00
70546;BME280;58098;51.680;5.134;2023-05-08T02:48:08;102091.19;;;12.50;100.00
70546;BME280;58098;51.680;5.134;2023-05-08T02:53:18;102082.88;;;12.44;100.00
70546;BME280;58098;51.680;5.134;2023-05-08T02:56:07;102088.03;;;12.45;100.00
70546;BME280;58098;51.680;5.134;2023-05-08T02:58:39;102086.66;;;12.40;100.00
70546;BME280;58098;51.680;5.134;2023-05-08T03:01:13;102081.53;;;12.38;100.00
70546;BME280;58098;51.680;5.134;2023-05-08T03:03:46;102085.06;;;12.37;100.00
70546;BME280;58098;51.680;5.134;2023-05-08T03:06:19;102085.94;;;12.38;100.00
70546;BME280;58098;51.680;5.134;2023-05-08T03:08:47;102065.59;;;12.29;100.00
70546;BME280;58098;51.680;5.134;2023-05-08T03:11:17;102084.22;;;12.37;100.00
70546;BME280;58098;51.680;5.134;2023-05-08T03:13:45;102067.75;;;12.22;100.00
70546;BME280;58098;51.680;5.134;2023-05-08T03:16:16;102072.06;;;12.23;100.00
70546;BME280;58098;51.680;5.134;2023-05-08T03:18:48;102071.34;;;12.21;100.00
70546;BME280;58098;51.680;5.134;2023-05-08T03:21:17;102067.22;;;12.17;100.00
70546;BME280;58098;51.680;5.134;2023-05-08T03:23:45;102075.72;;;12.21;100.00
70546;BME280;58098;51.680;5.134;2023-05-08T03:26:16;102064.31;;;12.09;100.00
70546;BME280;58098;51.680;5.134;2023-05-08T03:28:45;102074.53;;;12.12;100.00
70546;BME280;58098;51.680;5.134;2023-05-08T03:31:12;102060.19;;;12.05;100.00
70546;BME280;58098;51.680;5.134;2023-05-08T03:33:39;102068.16;;;12.04;100.00
70546;BME280;58098;51.680;5.134;2023-05-08T03:36:07;102071.59;;;12.04;100.00
70546;BME280;58098;51.680;5.134;2023-05-08T03:38:33;102072.41;;;12.05;100.00
70546;BME280;58098;51.680;5.134;2023-05-08T03:40:59;102068.44;;;11.99;100.00
70546;BME280;58098;51.680;5.134;2023-05-08T03:43:24;102075.25;;;12.02;100.00
70546;BME280;58098;51.680;5.134;2023-05-08T03:45:51;102077.41;;;11.95;100.00
70546;BME280;58098;51.680;5.134;2023-05-08T03:48:18;102071.75;;;11.88;100.00
70546;BME280;58098;51.680;5.134;2023-05-08T03:50:44;102060.75;;;11.83;100.00
70546;BME280;58098;51.680;5.134;2023-05-08T03:53:10;102064.22;;;11.84;100.00
70546;BME280;58098;51.680;5.134;2023-05-08T03:55:35;102074.38;;;11.88;100.00
70546;BME280;58098;51.680;5.134;2023-05-08T03:58:07;102082.09;;;11.90;100.00
70546;BME280;58098;51.680;5.134;2023-05-08T04:06:01;102072.97;;;11.83;100.00
70546;BME280;58098;51.680;5.134;2023-05-08T04:08:33;102076.53;;;11.82;100.00
70546;BME280;58098;51.680;5.134;2023-05-08T04:11:09;102080.00;;;11.82;100.00
70546;BME280;58098;51.680;5.134;2023-05-08T04:13:42;102089.03;;;11.91;100.00
70546;BME280;58098;51.680;5.134;2023-05-08T04:16:21;102080.63;;;11.86;100.00
70546;BME280;58098;51.680;5.134;2023-05-08T04:18:49;102088.28;;;11.89;100.00
70546;BME280;58098;51.680;5.134;2023-05-08T04:21:19;102071.31;;;11.82;100.00
70546;BME280;58098;51.680;5.134;2023-05-08T04:23:49;102087.34;;;11.90;100.00
70546;BME280;58098;51.680;5.134;2023-05-08T04:26:16;102089.13;;;11.89;100.00
70546;BME280;58098;51.680;5.134;2023-05-08T04:28:43;102091.09;;;11.86;100.00
70546;BME280;58098;51.680;5.134;2023-05-08T04:31:11;102083.25;;;11.86;100.00
70546;BME280;58098;51.680;5.134;2023-05-08T04:33:37;102068.88;;;11.79;100.00
70546;BME280;58098;51.680;5.134;2023-05-08T04:36:03;102089.50;;;11.83;100.00
70546;BME280;58098;51.680;5.134;2023-05-08T04:38:28;102090.16;;;11.87;100.00
70546;BME280;58098;51.680;5.134;2023-05-08T04:40:55;102086.81;;;11.85;100.00
70546;BME280;58098;51.680;5.134;2023-05-08T04:43:20;102080.75;;;11.84;100.00
70546;BME280;58098;51.680;5.134;2023-05-08T04:45:46;102099.59;;;11.89;100.00
70546;BME280;58098;51.680;5.134;2023-05-08T04:48:11;102105.63;;;11.90;100.00
70546;BME280;58098;51.680;5.134;2023-05-08T04:50:36;102105.63;;;11.90;100.00
70546;BME280;58098;51.680;5.134;2023-05-08T04:53:02;102115.91;;;11.93;100.00
70546;BME280;58098;51.680;5.134;2023-05-08T04:55:27;102092.78;;;11.87;100.00
70546;BME280;58098;51.680;5.134;2023-05-08T04:57:52;102097.91;;;11.88;100.00
70546;BME280;58098;51.680;5.134;2023-05-08T05:00:18;102105.06;;;11.99;100.00
70546;BME280;58098;51.680;5.134;2023-05-08T05:02:43;102091.25;;;11.97;100.00
70546;BME280;58098;51.680;5.134;2023-05-08T05:05:09;102099.25;;;12.08;100.00
70546;BME280;58098;51.680;5.134;2023-05-08T05:07:35;102115.59;;;12.24;100.00
70546;BME280;58098;51.680;5.134;2023-05-08T05:10:00;102112.44;;;12.19;100.00
70546;BME280;58098;51.680;5.134;2023-05-08T05:12:25;102115.34;;;12.41;100.00
70546;BME280;58098;51.680;5.134;2023-05-08T05:14:51;102112.31;;;12.47;100.00
70546;BME280;58098;51.680;5.134;2023-05-08T05:17:16;102129.63;;;12.63;100.00
70546;BME280;58098;51.680;5.134;2023-05-08T05:19:41;102132.06;;;12.78;100.00
70546;BME280;58098;51.680;5.134;2023-05-08T05:22:09;102134.16;;;12.86;100.00
70546;BME280;58098;51.680;5.134;2023-05-08T05:24:35;102126.22;;;12.87;100.00
70546;BME280;58098;51.680;5.134;2023-05-08T05:27:01;102137.19;;;13.05;100.00
70546;BME280;58098;51.680;5.134;2023-05-08T05:29:26;102123.72;;;13.11;100.00
70546;BME280;58098;51.680;5.134;2023-05-08T05:31:52;102124.78;;;13.21;100.00
70546;BME280;58098;51.680;5.134;2023-05-08T05:34:17;102137.63;;;13.37;100.00
70546;BME280;58098;51.680;5.134;2023-05-08T05:36:43;102135.66;;;13.40;100.00
70546;BME280;58098;51.680;5.134;2023-05-08T05:39:08;102136.16;;;13.58;100.00
70546;BME280;58098;51.680;5.134;2023-05-08T05:41:33;102127.22;;;13.60;100.00
70546;BME280;58098;51.680;5.134;2023-05-08T05:44:00;102141.84;;;13.75;100.00
70546;BME280;58098;51.680;5.134;2023-05-08T05:46:25;102130.53;;;13.75;100.00
70546;BME280;58098;51.680;5.134;2023-05-08T05:48:56;102133.34;;;13.84;100.00
70546;BME280;58098;51.680;5.134;2023-05-08T05:51:22;102139.09;;;13.89;100.00
70546;BME280;58098;51.680;5.134;2023-05-08T05:53:47;102132.59;;;13.82;100.00
70546;BME280;58098;51.680;5.134;2023-05-08T05:56:13;102134.66;;;13.90;100.00
70546;BME280;58098;51.680;5.134;2023-05-08T05:58:38;102138.34;;;13.87;100.00
70546;BME280;58098;51.680;5.134;2023-05-08T06:01:08;102154.25;;;13.97;100.00
70546;BME280;58098;51.680;5.134;2023-05-08T06:03:33;102148.59;;;14.03;100.00
70546;BME280;58098;51.680;5.134;2023-05-08T06:05:58;102141.38;;;14.18;100.00
70546;BME280;58098;51.680;5.134;2023-05-08T06:08:24;102145.63;;;14.31;100.00
70546;BME280;58098;51.680;5.134;2023-05-08T06:10:49;102132.59;;;14.30;100.00
70546;BME280;58098;51.680;5.134;2023-05-08T06:13:14;102136.75;;;14.45;100.00
70546;BME280;58098;51.680;5.134;2023-05-08T06:15:40;102142.38;;;14.51;100.00
70546;BME280;58098;51.680;5.134;2023-05-08T06:18:05;102154.03;;;14.71;100.00
70546;BME280;58098;51.680;5.134;2023-05-08T06:20:31;102135.78;;;14.70;100.00
70546;BME280;58098;51.680;5.134;2023-05-08T06:22:56;102153.72;;;14.87;100.00
70546;BME280;58098;51.680;5.134;2023-05-08T06:25:21;102160.28;;;14.92;100.00
70546;BME280;58098;51.680;5.134;2023-05-08T06:27:46;102153.50;;;15.01;100.00
70546;BME280;58098;51.680;5.134;2023-05-08T06:30:12;102157.56;;;15.05;100.00
70546;BME280;58098;51.680;5.134;2023-05-08T06:32:37;102167.84;;;15.19;100.00
70546;BME280;58098;51.680;5.134;2023-05-08T06:35:03;102169.66;;;15.30;100.00
70546;BME280;58098;51.680;5.134;2023-05-08T06:37:28;102172.28;;;15.41;100.00
70546;BME280;58098;51.680;5.134;2023-05-08T06:39:53;102160.69;;;15.43;100.00
70546;BME280;58098;51.680;5.134;2023-05-08T06:42:19;102161.53;;;15.44;100.00
70546;BME280;58098;51.680;5.134;2023-05-08T06:44:44;102169.00;;;15.50;100.00
70546;BME280;58098;51.680;5.134;2023-05-08T06:47:09;102161.75;;;15.41;100.00
70546;BME280;58098;51.680;5.134;2023-05-08T06:49:35;102165.38;;;15.40;100.00
70546;BME280;58098;51.680;5.134;2023-05-08T06:52:01;102169.44;;;15.44;100.00
70546;BME280;58098;51.680;5.134;2023-05-08T06:54:26;102178.06;;;15.46;100.00
70546;BME280;58098;51.680;5.134;2023-05-08T06:56:52;102174.25;;;15.50;100.00
70546;BME280;58098;51.680;5.134;2023-05-08T06:59:19;102164.06;;;15.56;100.00
70546;BME280;58098;51.680;5.134;2023-05-08T07:01:44;102165.13;;;15.65;100.00
70546;BME280;58098;51.680;5.134;2023-05-08T07:04:09;102171.94;;;15.78;100.00
70546;BME280;58098;51.680;5.134;2023-05-08T07:06:35;102164.91;;;15.79;100.00
70546;BME280;58098;51.680;5.134;2023-05-08T07:09:00;102165.56;;;15.92;100.00
70546;BME280;58098;51.680;5.134;2023-05-08T07:11:25;102164.72;;;15.92;100.00
70546;BME280;58098;51.680;5.134;2023-05-08T07:13:51;102156.22;;;16.10;100.00
70546;BME280;58098;51.680;5.134;2023-05-08T07:16:16;102169.88;;;16.36;100.00
70546;BME280;58098;51.680;5.134;2023-05-08T07:18:42;102166.63;;;16.55;100.00
70546;BME280;58098;51.680;5.134;2023-05-08T07:21:08;102168.63;;;16.62;100.00
70546;BME280;58098;51.680;5.134;2023-05-08T07:23:33;102150.97;;;16.63;100.00
70546;BME280;58098;51.680;5.134;2023-05-08T07:25:58;102162.25;;;16.85;100.00
70546;BME280;58098;51.680;5.134;2023-05-08T07:28:24;102159.91;;;16.92;100.00
70546;BME280;58098;51.680;5.134;2023-05-08T07:30:49;102166.13;;;17.11;100.00
70546;BME280;58098;51.680;5.134;2023-05-08T07:33:15;102160.56;;;17.05;100.00
70546;BME280;58098;51.680;5.134;2023-05-08T07:35:41;102170.72;;;17.09;100.00
70546;BME280;58098;51.680;5.134;2023-05-08T07:38:07;102171.38;;;17.02;100.00
70546;BME280;58098;51.680;5.134;2023-05-08T07:40:32;102167.44;;;16.96;100.00
70546;BME280;58098;51.680;5.134;2023-05-08T07:42:58;102169.72;;;17.01;100.00
70546;BME280;58098;51.680;5.134;2023-05-08T07:45:23;102178.19;;;17.04;100.00
70546;BME280;58098;51.680;5.134;2023-05-08T07:47:54;102173.50;;;17.08;100.00
70546;BME280;58098;51.680;5.134;2023-05-08T07:50:20;102174.09;;;17.21;100.00
70546;BME280;58098;51.680;5.134;2023-05-08T07:52:46;102175.84;;;17.32;100.00
70546;BME280;58098;51.680;5.134;2023-05-08T07:55:12;102170.56;;;17.32;100.00
70546;BME280;58098;51.680;5.134;2023-05-08T07:57:38;102176.53;;;17.54;100.00
70546;BME280;58098;51.680;5.134;2023-05-08T08:00:05;102163.53;;;17.81;100.00
70546;BME280;58098;51.680;5.134;2023-05-08T08:02:31;102160.53;;;18.15;100.00
70546;BME280;58098;51.680;5.134;2023-05-08T08:04:56;102164.75;;;18.46;100.00
70546;BME280;58098;51.680;5.134;2023-05-08T08:07:21;102159.63;;;18.54;100.00
70546;BME280;58098;51.680;5.134;2023-05-08T08:09:47;102164.31;;;18.70;100.00
70546;BME280;58098;51.680;5.134;2023-05-08T08:12:12;102165.03;;;18.53;100.00
70546;BME280;58098;51.680;5.134;2023-05-08T08:14:37;102154.75;;;18.59;100.00
70546;BME280;58098;51.680;5.134;2023-05-08T08:17:03;102164.75;;;18.65;100.00
70546;BME280;58098;51.680;5.134;2023-05-08T08:19:28;102165.56;;;18.75;100.00
70546;BME280;58098;51.680;5.134;2023-05-08T08:21:53;102176.28;;;18.83;100.00
70546;BME280;58098;51.680;5.134;2023-05-08T08:24:18;102164.59;;;18.76;100.00
70546;BME280;58098;51.680;5.134;2023-05-08T08:26:44;102174.34;;;18.85;100.00
70546;BME280;58098;51.680;5.134;2023-05-08T08:29:10;102161.38;;;18.82;100.00
70546;BME280;58098;51.680;5.134;2023-05-08T08:31:35;102175.59;;;18.91;100.00
70546;BME280;58098;51.680;5.134;2023-05-08T08:34:00;102170.81;;;18.94;100.00
70546;BME280;58098;51.680;5.134;2023-05-08T08:36:25;102180.94;;;19.08;100.00
70546;BME280;58098;51.680;5.134;2023-05-08T08:38:51;102170.25;;;19.10;100.00
70546;BME280;58098;51.680;5.134;2023-05-08T08:41:16;102184.06;;;18.94;100.00
70546;BME280;58098;51.680;5.134;2023-05-08T08:43:41;102168.38;;;18.74;100.00
70546;BME280;58098;51.680;5.134;2023-05-08T08:46:11;102185.78;;;18.76;100.00
70546;BME280;58098;51.680;5.134;2023-05-08T08:48:42;102186.72;;;18.75;100.00
70546;BME280;58098;51.680;5.134;2023-05-08T08:51:22;102181.16;;;18.78;100.00
70546;BME280;58098;51.680;5.134;2023-05-08T08:53:51;102183.91;;;18.86;100.00
70546;BME280;58098;51.680;5.134;2023-05-08T08:56:20;102189.22;;;18.67;100.00
70546;BME280;58098;51.680;5.134;2023-05-08T08:58:54;102170.47;;;18.51;100.00
70546;BME280;58098;51.680;5.134;2023-05-08T09:01:20;102176.69;;;18.31;100.00
70546;BME280;58098;51.680;5.134;2023-05-08T09:03:48;102186.56;;;18.29;100.00
70546;BME280;58098;51.680;5.134;2023-05-08T09:06:14;102175.28;;;18.17;100.00
70546;BME280;58098;51.680;5.134;2023-05-08T09:08:39;102173.59;;;18.16;100.00
70546;BME280;58098;51.680;5.134;2023-05-08T09:11:05;102184.19;;;18.26;100.00
70546;BME280;58098;51.680;5.134;2023-05-08T09:13:31;102181.16;;;18.50;100.00
70546;BME280;58098;51.680;5.134;2023-05-08T09:15:57;102177.13;;;18.74;100.00
70546;BME280;58098;51.680;5.134;2023-05-08T09:18:23;102180.16;;;18.79;100.00
70546;BME280;58098;51.680;5.134;2023-05-08T09:20:49;102191.16;;;18.94;100.00
70546;BME280;58098;51.680;5.134;2023-05-08T09:23:16;102189.09;;;18.88;100.00
70546;BME280;58098;51.680;5.134;2023-05-08T09:25:47;102192.97;;;18.74;100.00
70546;BME280;58098;51.680;5.134;2023-05-08T09:28:20;102190.19;;;18.85;100.00
70546;BME280;58098;51.680;5.134;2023-05-08T09:33:16;102178.41;;;19.63;100.00
70546;BME280;58098;51.680;5.134;2023-05-08T09:35:41;102181.13;;;19.98;100.00
70546;BME280;58098;51.680;5.134;2023-05-08T09:38:06;102190.09;;;20.24;100.00
70546;BME280;58098;51.680;5.134;2023-05-08T09:40:32;102178.78;;;20.58;100.00
70546;BME280;58098;51.680;5.134;2023-05-08T09:43:11;102181.16;;;20.69;100.00
70546;BME280;58098;51.680;5.134;2023-05-08T09:45:37;102190.00;;;20.34;100.00
70546;BME280;58098;51.680;5.134;2023-05-08T09:48:04;102169.94;;;20.04;100.00
70546;BME280;58098;51.680;5.134;2023-05-08T09:50:30;102179.31;;;20.44;100.00
70546;BME280;58098;51.680;5.134;2023-05-08T09:52:57;102179.31;;;20.44;100.00
70546;BME280;58098;51.680;5.134;2023-05-08T09:55:22;102181.25;;;20.77;100.00
70546;BME280;58098;51.680;5.134;2023-05-08T09:57:53;102185.00;;;20.92;100.00
70546;BME280;58098;51.680;5.134;2023-05-08T10:00:20;102186.22;;;20.97;100.00
70546;BME280;58098;51.680;5.134;2023-05-08T10:03:06;102194.31;;;21.14;100.00
70546;BME280;58098;51.680;5.134;2023-05-08T10:05:33;102184.47;;;20.63;100.00
70546;BME280;58098;51.680;5.134;2023-05-08T10:08:22;102193.47;;;21.13;100.00
70546;BME280;58098;51.680;5.134;2023-05-08T10:10:47;102178.22;;;21.15;100.00
70546;BME280;58098;51.680;5.134;2023-05-08T10:13:13;102183.78;;;21.30;100.00
70546;BME280;58098;51.680;5.134;2023-05-08T10:15:41;102180.44;;;21.28;100.00
70546;BME280;58098;51.680;5.134;2023-05-08T10:18:07;102180.19;;;21.13;100.00
70546;BME280;58098;51.680;5.134;2023-05-08T10:20:37;102165.78;;;21.49;100.00
70546;BME280;58098;51.680;5.134;2023-05-08T10:23:06;102177.13;;;21.59;100.00
70546;BME280;58098;51.680;5.134;2023-05-08T10:25:35;102179.09;;;21.91;100.00
70546;BME280;58098;51.680;5.134;2023-05-08T10:28:12;102195.69;;;21.85;100.00
70546;BME280;58098;51.680;5.134;2023-05-08T10:30:47;102172.38;;;22.29;100.00
70546;BME280;58098;51.680;5.134;2023-05-08T10:33:14;102173.00;;;22.39;100.00
70546;BME280;58098;51.680;5.134;2023-05-08T10:35:40;102176.66;;;22.22;100.00
70546;BME280;58098;51.680;5.134;2023-05-08T10:38:10;102174.06;;;22.70;100.00
70546;BME280;58098;51.680;5.134;2023-05-08T10:40:36;102167.38;;;22.90;100.00
70546;BME280;58098;51.680;5.134;2023-05-08T10:43:02;102169.22;;;22.66;100.00
70546;BME280;58098;51.680;5.134;2023-05-08T10:45:29;102179.31;;;22.30;100.00
70546;BME280;58098;51.680;5.134;2023-05-08T10:51:02;102164.25;;;22.63;100.00
70546;BME280;58098;51.680;5.134;2023-05-08T10:53:51;102169.38;;;23.05;100.00
70546;BME280;58098;51.680;5.134;2023-05-08T10:56:27;102179.13;;;23.20;100.00
70546;BME280;58098;51.680;5.134;2023-05-08T10:58:59;102166.47;;;23.38;100.00
70546;BME280;58098;51.680;5.134;2023-05-08T11:01:25;102164.28;;;23.42;100.00
70546;BME280;58098;51.680;5.134;2023-05-08T11:03:51;102182.16;;;23.64;100.00
70546;BME280;58098;51.680;5.134;2023-05-08T11:06:18;102165.53;;;23.93;100.00
70546;BME280;58098;51.680;5.134;2023-05-08T11:09:02;102180.44;;;23.32;100.00
70546;BME280;58098;51.680;5.134;2023-05-08T11:11:31;102185.59;;;23.42;100.00
70546;BME280;58098;51.680;5.134;2023-05-08T11:19:19;102156.25;;;23.50;100.00
70546;BME280;58098;51.680;5.134;2023-05-08T11:22:10;102171.78;;;23.77;100.00
70546;BME280;58098;51.680;5.134;2023-05-08T11:24:37;102170.81;;;23.15;100.00
70546;BME280;58098;51.680;5.134;2023-05-08T11:27:03;102158.41;;;22.91;100.00
70546;BME280;58098;51.680;5.134;2023-05-08T11:29:28;102146.81;;;23.23;100.00
70546;BME280;58098;51.680;5.134;2023-05-08T11:31:54;102161.13;;;23.22;100.00
70546;BME280;58098;51.680;5.134;2023-05-08T11:37:19;102145.25;;;22.74;100.00
70546;BME280;58098;51.680;5.134;2023-05-08T11:39:46;102157.91;;;22.72;100.00
70546;BME280;58098;51.680;5.134;2023-05-08T11:45:09;102152.69;;;23.11;100.00
70546;BME280;58098;51.680;5.134;2023-05-08T11:47:39;102156.53;;;23.00;100.00
70546;BME280;58098;51.680;5.134;2023-05-08T11:50:07;102159.09;;;22.69;100.00
70546;BME280;58098;51.680;5.134;2023-05-08T11:52:37;102161.41;;;22.64;100.00
70546;BME280;58098;51.680;5.134;2023-05-08T11:55:04;102156.41;;;22.77;100.00
70546;BME280;58098;51.680;5.134;2023-05-08T11:57:31;102133.38;;;23.09;100.00
70546;BME280;58098;51.680;5.134;2023-05-08T11:59:57;102156.03;;;23.05;100.00
70546;BME280;58098;51.680;5.134;2023-05-08T12:02:35;102152.47;;;23.75;100.00
70546;BME280;58098;51.680;5.134;2023-05-08T12:05:01;102154.91;;;24.15;100.00
70546;BME280;58098;51.680;5.134;2023-05-08T12:07:27;102161.13;;;23.77;100.00
70546;BME280;58098;51.680;5.134;2023-05-08T12:09:52;102156.09;;;23.82;100.00
70546;BME280;58098;51.680;5.134;2023-05-08T12:12:17;102136.50;;;23.67;100.00
70546;BME280;58098;51.680;5.134;2023-05-08T12:14:43;102148.03;;;23.59;100.00
70546;BME280;58098;51.680;5.134;2023-05-08T12:17:08;102156.06;;;23.51;100.00
70546;BME280;58098;51.680;5.134;2023-05-08T12:19:34;102146.13;;;24.29;100.00
70546;BME280;58098;51.680;5.134;2023-05-08T12:21:59;102145.97;;;24.08;100.00
70546;BME280;58098;51.680;5.134;2023-05-08T12:24:24;102132.00;;;23.98;100.00
70546;BME280;58098;51.680;5.134;2023-05-08T12:26:53;102127.28;;;24.31;100.00
70546;BME280;58098;51.680;5.134;2023-05-08T12:29:22;102137.28;;;24.06;100.00
70546;BME280;58098;51.680;5.134;2023-05-08T12:31:47;102127.91;;;24.70;100.00
70546;BME280;58098;51.680;5.134;2023-05-08T12:34:13;102134.81;;;24.65;100.00
70546;BME280;58098;51.680;5.134;2023-05-08T12:36:39;102140.97;;;25.46;100.00
70546;BME280;58098;51.680;5.134;2023-05-08T12:39:15;102126.84;;;26.45;100.00
70546;BME280;58098;51.680;5.134;2023-05-08T12:41:45;102135.25;;;26.70;100.00
70546;BME280;58098;51.680;5.134;2023-05-08T12:44:22;102120.81;;;26.43;100.00
70546;BME280;58098;51.680;5.134;2023-05-08T12:46:55;102112.03;;;26.49;100.00
70546;BME280;58098;51.680;5.134;2023-05-08T12:49:30;102123.41;;;26.79;100.00
70546;BME280;58098;51.680;5.134;2023-05-08T12:52:01;102118.66;;;26.81;100.00
70546;BME280;58098;51.680;5.134;2023-05-08T12:54:37;102116.16;;;27.48;100.00
70546;BME280;58098;51.680;5.134;2023-05-08T12:57:17;102118.31;;;26.91;100.00
70546;BME280;58098;51.680;5.134;2023-05-08T12:59:44;102111.13;;;26.00;100.00
70546;BME280;58098;51.680;5.134;2023-05-08T13:02:17;102105.25;;;25.90;100.00
70546;BME280;58098;51.680;5.134;2023-05-08T13:04:44;102084.44;;;25.64;100.00
70546;BME280;58098;51.680;5.134;2023-05-08T13:07:09;102094.19;;;26.14;100.00
70546;BME280;58098;51.680;5.134;2023-05-08T13:09:35;102086.63;;;26.17;100.00
70546;BME280;58098;51.680;5.134;2023-05-08T13:12:00;102088.84;;;26.91;100.00
70546;BME280;58098;51.680;5.134;2023-05-08T13:14:26;102092.47;;;27.58;100.00
70546;BME280;58098;51.680;5.134;2023-05-08T13:16:51;102103.47;;;26.88;100.00
70546;BME280;58098;51.680;5.134;2023-05-08T13:19:16;102099.78;;;26.68;100.00